sensor_id;sensor_type;location;lat;lon;timestamp;pressure;altitude;pressure_sealevel;temperature;humidity
80869;BME280;70295;40.182;44.498;2024-01-15T00:01:28;90510.7;;;1;52.66133
80869;BME280;70295;40.182;44.498;2024-01-15T00:03:28;90486.86;;;1;52.79023
80869;BME280;70295;40.182;44.498;2024-01-15T00:05:28;90483.22;;;0.94;52.63203
80869;BME280;70295;40.182;44.498;2024-01-15T00:07:28;90503.2;;;0.86;52.80391
80869;BME280;70295;40.182;44.498;2024-01-15T00:09:28;90496.56;;;0.86;52.98848
80869;BME280;70295;40.182;44.498;2024-01-15T00:11:28;90496.08;;;0.89;53.02461
80869;BME280;70295;40.182;44.498;2024-01-15T00:13:28;90503.14;;;0.91;53.03828
80869;BME280;70295;40.182;44.498;2024-01-15T00:15:28;90504.41;;;0.93;53.06172
80869;BME280;70295;40.182;44.498;2024-01-15T00:17:28;90499.71;;;0.95;53.09687
80869;BME280;70295;40.182;44.498;2024-01-15T00:19:28;90506.41;;;0.97;53.0666
80869;BME280;70295;40.182;44.498;2024-01-15T00:21:28;90508;;;0.98;53.08906
80869;BME280;70295;40.182;44.498;2024-01-15T00:23:28;90504.01;;;1;52.99434
80869;BME280;70295;40.182;44.498;2024-01-15T00:25:28;90505.05;;;0.99;53.01582
80869;BME280;70295;40.182;44.498;2024-01-15T00:27:28;90498.95;;;1.01;52.9748
80869;BME280;70295;40.182;44.498;2024-01-15T00:29:28;90500.91;;;1.02;52.91133
80869;BME280;70295;40.182;44.498;2024-01-15T00:31:28;90502.32;;;1.03;52.79414
80869;BME280;70295;40.182;44.498;2024-01-15T00:33:28;90501.78;;;1.02;52.75898
80869;BME280;70295;40.182;44.498;2024-01-15T00:35:28;90497.78;;;1.04;52.75215
80869;BME280;70295;40.182;44.498;2024-01-15T00:37:28;90499.87;;;1.03;52.64277
80869;BME280;70295;40.182;44.498;2024-01-15T00:39:28;90501.13;;;1.04;52.66523
80869;BME280;70295;40.182;44.498;2024-01-15T00:41:28;90501;;;1.07;52.53926
80869;BME280;70295;40.182;44.498;2024-01-15T00:43:28;90497.27;;;1.05;52.41816
80869;BME280;70295;40.182;44.498;2024-01-15T00:45:28;90495.36;;;1.05;52.38594
80869;BME280;70295;40.182;44.498;2024-01-15T00:47:28;90499.31;;;1.02;52.3918
80869;BME280;70295;40.182;44.498;2024-01-15T00:49:28;90500.67;;;0.99;52.35762
80869;BME280;70295;40.182;44.498;2024-01-15T00:51:28;90502.36;;;0.96;52.34199
80869;BME280;70295;40.182;44.498;2024-01-15T00:53:28;90497.78;;;0.95;52.38398
80869;BME280;70295;40.182;44.498;2024-01-15T00:55:28;90496.88;;;0.94;52.43672
80869;BME280;70295;40.182;44.498;2024-01-15T00:57:28;90499.58;;;0.97;52.41914
80869;BME280;70295;40.182;44.498;2024-01-15T00:59:28;90498.92;;;0.99;52.34687
80869;BME280;70295;40.182;44.498;2024-01-15T01:01:28;90492.96;;;0.99;52.24922
80869;BME280;70295;40.182;44.498;2024-01-15T01:03:28;90495.75;;;0.98;52.14961
80869;BME280;70295;40.182;44.498;2024-01-15T01:05:28;90497.28;;;0.96;52.07344
80869;BME280;70295;40.182;44.498;2024-01-15T01:07:28;90494.81;;;0.95;52.01777
80869;BME280;70295;40.182;44.498;2024-01-15T01:09:28;90491.98;;;0.94;51.88594
80869;BME280;70295;40.182;44.498;2024-01-15T01:11:28;90490.72;;;0.92;51.79707
80869;BME280;70295;40.182;44.498;2024-01-15T01:13:28;90487.15;;;0.89;51.69648
80869;BME280;70295;40.182;44.498;2024-01-15T01:15:28;90486.75;;;0.87;51.60859
80869;BME280;70295;40.182;44.498;2024-01-15T01:17:28;90490.75;;;0.86;51.50898
80869;BME280;70295;40.182;44.498;2024-01-15T01:19:27;90493.22;;;0.86;51.40059
80869;BME280;70295;40.182;44.498;2024-01-15T01:21:27;90496.05;;;0.87;51.35957
80869;BME280;70295;40.182;44.498;2024-01-15T01:23:28;90481.67;;;0.86;51.22871
80869;BME280;70295;40.182;44.498;2024-01-15T01:25:27;90492.16;;;0.85;51.10762
80869;BME280;70295;40.182;44.498;2024-01-15T01:27:27;90497.91;;;0.84;51.06367
80869;BME280;70295;40.182;44.498;2024-01-15T01:29:28;90475.59;;;0.81;50.99434
80869;BME280;70295;40.182;44.498;2024-01-15T01:31:27;90481.09;;;0.76;50.95625
80869;BME280;70295;40.182;44.498;2024-01-15T01:33:27;90489.98;;;0.73;50.99629
80869;BME280;70295;40.182;44.498;2024-01-15T01:35:27;90478.17;;;0.7;51.00508
80869;BME280;70295;40.182;44.498;2024-01-15T01:37:28;90470.58;;;0.68;51.01191
80869;BME280;70295;40.182;44.498;2024-01-15T01:41:19;90487.09;;;0.69;51.04609
80869;BME280;70295;40.182;44.498;2024-01-15T01:43:19;90484.02;;;0.65;51.13789
80869;BME280;70295;40.182;44.498;2024-01-15T01:45:19;90486.47;;;0.65;51.25703
80869;BME280;70295;40.182;44.498;2024-01-15T01:47:19;90484.05;;;0.67;51.30098
80869;BME280;70295;40.182;44.498;2024-01-15T01:49:19;90486.84;;;0.66;51.33418
80869;BME280;70295;40.182;44.498;2024-01-15T01:51:19;90487.02;;;0.66;51.37715
80869;BME280;70295;40.182;44.498;2024-01-15T01:53:19;90483.56;;;0.69;51.35762
80869;BME280;70295;40.182;44.498;2024-01-15T01:55:19;90479.38;;;0.69;51.39082
80869;BME280;70295;40.182;44.498;2024-01-15T01:57:19;90484.63;;;0.69;51.4123
80869;BME280;70295;40.182;44.498;2024-01-15T01:59:19;90484.67;;;0.71;51.42598
80869;BME280;70295;40.182;44.498;2024-01-15T02:01:19;90490.82;;;0.72;51.43867
80869;BME280;70295;40.182;44.498;2024-01-15T02:03:19;90493.28;;;0.72;51.42793
80869;BME280;70295;40.182;44.498;2024-01-15T02:05:19;90489.56;;;0.71;51.36055
80869;BME280;70295;40.182;44.498;2024-01-15T02:07:19;90487.05;;;0.67;51.33516
80869;BME280;70295;40.182;44.498;2024-01-15T02:09:19;90489.8;;;0.64;51.35273
80869;BME280;70295;40.182;44.498;2024-01-15T02:11:19;90488.13;;;0.61;51.40254
80869;BME280;70295;40.182;44.498;2024-01-15T02:13:20;90490.41;;;0.61;51.50996
80869;BME280;70295;40.182;44.498;2024-01-15T02:15:19;90486.91;;;0.61;51.53242
80869;BME280;70295;40.182;44.498;2024-01-15T02:17:19;90482.47;;;0.58;51.51777
80869;BME280;70295;40.182;44.498;2024-01-15T02:19:19;90476.63;;;0.46;51.40547
80869;BME280;70295;40.182;44.498;2024-01-15T02:21:19;90484.19;;;0.33;51.52851
80869;BME280;70295;40.182;44.498;2024-01-15T02:23:19;90476.41;;;0.29;51.82734
80869;BME280;70295;40.182;44.498;2024-01-15T02:25:19;90474.6;;;0.27;51.78242
80869;BME280;70295;40.182;44.498;2024-01-15T02:29:10;90489.98;;;0.25;51.95137
80869;BME280;70295;40.182;44.498;2024-01-15T02:31:10;90491.73;;;0.26;51.92012
80869;BME280;70295;40.182;44.498;2024-01-15T02:33:10;90487.38;;;0.19;51.71797
80869;BME280;70295;40.182;44.498;2024-01-15T02:35:10;90486.37;;;0.13;51.87226
80869;BME280;70295;40.182;44.498;2024-01-15T02:37:10;90487.12;;;0.14;52.01387
80869;BME280;70295;40.182;44.498;2024-01-15T02:39:10;90485.3;;;0.19;52.04219
80869;BME280;70295;40.182;44.498;2024-01-15T02:41:10;90484.52;;;0.24;52.03633
80869;BME280;70295;40.182;44.498;2024-01-15T02:43:10;90480.77;;;0.29;51.93574
80869;BME280;70295;40.182;44.498;2024-01-15T02:45:10;90480.18;;;0.25;51.57344
80869;BME280;70295;40.182;44.498;2024-01-15T02:47:10;90482.92;;;0.16;51.46504
80869;BME280;70295;40.182;44.498;2024-01-15T02:49:10;90478.55;;;0.08;51.63984
80869;BME280;70295;40.182;44.498;2024-01-15T02:51:10;90479.25;;;0.07;51.90937
80869;BME280;70295;40.182;44.498;2024-01-15T02:53:10;90475.28;;;0.1;52.10566
80869;BME280;70295;40.182;44.498;2024-01-15T02:55:10;90480.49;;;0.08;52.02754
80869;BME280;70295;40.182;44.498;2024-01-15T02:57:10;90477.14;;;0.08;52.21113
80869;BME280;70295;40.182;44.498;2024-01-15T02:59:10;90484.56;;;0.11;52.4084
80869;BME280;70295;40.182;44.498;2024-01-15T03:01:10;90481.52;;;0.14;52.5207
80869;BME280;70295;40.182;44.498;2024-01-15T03:03:10;90486.48;;;0.18;52.51484
80869;BME280;70295;40.182;44.498;2024-01-15T03:05:10;90488.08;;;0.18;52.56855
80869;BME280;70295;40.182;44.498;2024-01-15T03:07:10;90485.45;;;0.19;52.64473
80869;BME280;70295;40.182;44.498;2024-01-15T03:09:10;90491.63;;;0.21;52.71309
80869;BME280;70295;40.182;44.498;2024-01-15T03:11:10;90494.28;;;0.22;52.72383
80869;BME280;70295;40.182;44.498;2024-01-15T03:13:10;90493.59;;;0.22;52.79902
80869;BME280;70295;40.182;44.498;2024-01-15T03:15:10;90493.78;;;0.24;52.85566
80869;BME280;70295;40.182;44.498;2024-01-15T03:17:10;90492.77;;;0.25;52.87812
80869;BME280;70295;40.182;44.498;2024-01-15T03:19:10;90496.08;;;0.25;52.95332
80869;BME280;70295;40.182;44.498;2024-01-15T03:21:10;90499.62;;;0.26;52.9875
80869;BME280;70295;40.182;44.498;2024-01-15T03:23:10;90498.94;;;0.26;53.05293
80869;BME280;70295;40.182;44.498;2024-01-15T03:25:10;90500.2;;;0.28;53.09687
80869;BME280;70295;40.182;44.498;2024-01-15T03:27:10;90507.36;;;0.27;53.13008
80869;BME280;70295;40.182;44.498;2024-01-15T03:30:16;90515.39;;;0.34;53.13789
80869;BME280;70295;40.182;44.498;2024-01-15T03:32:16;90509.05;;;0.32;53.07051
80869;BME280;70295;40.182;44.498;2024-01-15T03:33:31;90513.66;;;0.27;52.94648
80869;BME280;70295;40.182;44.498;2024-01-15T03:35:31;90520.52;;;0.21;53.01387
80869;BME280;70295;40.182;44.498;2024-01-15T03:37:31;90521.47;;;0.17;53.01973
80869;BME280;70295;40.182;44.498;2024-01-15T03:39:31;90525.8;;;0.14;53.10273
80869;BME280;70295;40.182;44.498;2024-01-15T03:43:01;90527.45;;;0.11;53.13105
80869;BME280;70295;40.182;44.498;2024-01-15T03:45:01;90532.33;;;0.1;53.13984
80869;BME280;70295;40.182;44.498;2024-01-15T03:47:01;90540.55;;;0.1;53.19355
80869;BME280;70295;40.182;44.498;2024-01-15T03:56:07;90553.61;;;0.08;53.34199
80869;BME280;70295;40.182;44.498;2024-01-15T03:58:07;90557.98;;;0.07;53.45918
80869;BME280;70295;40.182;44.498;2024-01-15T04:00:08;90563.25;;;0.08;53.52559
80869;BME280;70295;40.182;44.498;2024-01-15T04:02:07;90563.6;;;0.08;53.53633
80869;BME280;70295;40.182;44.498;2024-01-15T04:04:07;90562.55;;;0.07;53.53633
80869;BME280;70295;40.182;44.498;2024-01-15T04:09:00;90562.56;;;0.09;53.48359
80869;BME280;70295;40.182;44.498;2024-01-15T04:10:59;90562.92;;;0.09;53.34297
80869;BME280;70295;40.182;44.498;2024-01-15T04:12:59;90558.1;;;0.04;53.33711
80869;BME280;70295;40.182;44.498;2024-01-15T04:14:59;90557.06;;;-0.02;53.35078
80869;BME280;70295;40.182;44.498;2024-01-15T04:16:59;90560.45;;;-0.07;53.34492
80869;BME280;70295;40.182;44.498;2024-01-15T04:18:59;90567.28;;;-0.13;53.28242
80869;BME280;70295;40.182;44.498;2024-01-15T04:20:59;90570.8;;;-0.19;53.23262
80869;BME280;70295;40.182;44.498;2024-01-15T04:23:00;90578.3;;;-0.26;53.14766
80869;BME280;70295;40.182;44.498;2024-01-15T04:24:59;90581.33;;;-0.31;53.20625
80869;BME280;70295;40.182;44.498;2024-01-15T04:26:59;90580.7;;;-0.35;53.29707
80869;BME280;70295;40.182;44.498;2024-01-15T04:37:25;90590.78;;;-0.31;54.31465
80869;BME280;70295;40.182;44.498;2024-01-15T04:39:25;90591.43;;;-0.27;54.35273
80869;BME280;70295;40.182;44.498;2024-01-15T04:41:25;90590.84;;;-0.22;54.42207
80869;BME280;70295;40.182;44.498;2024-01-15T04:43:25;90587.86;;;-0.16;54.50605
80869;BME280;70295;40.182;44.498;2024-01-15T04:45:25;90586.28;;;-0.09;54.52656
80869;BME280;70295;40.182;44.498;2024-01-15T04:47:25;90589.08;;;-0.02;54.5998
80869;BME280;70295;40.182;44.498;2024-01-15T04:49:24;90596.95;;;0.04;54.6623
80869;BME280;70295;40.182;44.498;2024-01-15T04:51:24;90594.52;;;0.13;54.67402
80869;BME280;70295;40.182;44.498;2024-01-15T04:53:24;90595.59;;;0.21;54.64082
80869;BME280;70295;40.182;44.498;2024-01-15T04:55:24;90596.11;;;0.27;54.51973
80869;BME280;70295;40.182;44.498;2024-01-15T04:57:24;90596.75;;;0.32;54.35371
80869;BME280;70295;40.182;44.498;2024-01-15T04:59:24;90605.44;;;0.38;54.31758
80869;BME280;70295;40.182;44.498;2024-01-15T05:01:24;90604.23;;;0.45;54.22969
80869;BME280;70295;40.182;44.498;2024-01-15T05:03:24;90607.93;;;0.53;54.13301
80869;BME280;70295;40.182;44.498;2024-01-15T05:05:24;90605.63;;;0.6;53.97969
80869;BME280;70295;40.182;44.498;2024-01-15T05:07:24;90608.93;;;0.66;53.8791
80869;BME280;70295;40.182;44.498;2024-01-15T05:09:24;90609.82;;;0.74;53.73848
80869;BME280;70295;40.182;44.498;2024-01-15T05:11:25;90609.63;;;0.81;53.57539
80869;BME280;70295;40.182;44.498;2024-01-15T05:13:24;90616.99;;;0.89;53.47773
80869;BME280;70295;40.182;44.498;2024-01-15T05:15:24;90625.98;;;0.99;53.37226
80869;BME280;70295;40.182;44.498;2024-01-15T05:17:24;90629.88;;;1.09;53.16816
80869;BME280;70295;40.182;44.498;2024-01-15T05:19:24;90634.83;;;1.19;53.01875
80869;BME280;70295;40.182;44.498;2024-01-15T05:21:24;90640.94;;;1.25;52.78926
80869;BME280;70295;40.182;44.498;2024-01-15T05:23:24;90644.71;;;1.3;52.63398
80869;BME280;70295;40.182;44.498;2024-01-15T05:25:25;90648.97;;;1.4;52.58125
80869;BME280;70295;40.182;44.498;2024-01-15T05:27:25;90657.06;;;1.5;52.57246
80869;BME280;70295;40.182;44.498;2024-01-15T05:29:24;90665.72;;;1.61;52.49922
80869;BME280;70295;40.182;44.498;2024-01-15T05:31:24;90668.25;;;1.73;52.3957
80869;BME280;70295;40.182;44.498;2024-01-15T05:33:24;90669;;;1.84;52.22578
80869;BME280;70295;40.182;44.498;2024-01-15T05:35:24;90668.27;;;1.92;51.92207
80869;BME280;70295;40.182;44.498;2024-01-15T05:37:25;90673.27;;;1.97;51.7209
80869;BME280;70295;40.182;44.498;2024-01-15T05:39:24;90671.86;;;1.97;51.42891
80869;BME280;70295;40.182;44.498;2024-01-15T05:41:24;90678.45;;;1.92;51.24043
80869;BME280;70295;40.182;44.498;2024-01-15T05:43:24;90679.09;;;1.89;51.08418
80869;BME280;70295;40.182;44.498;2024-01-15T05:45:26;90680.44;;;1.86;50.98359
80869;BME280;70295;40.182;44.498;2024-01-15T05:47:24;90679.41;;;1.88;51.01777
80869;BME280;70295;40.182;44.498;2024-01-15T05:49:24;90685.81;;;2;51.21699
80869;BME280;70295;40.182;44.498;2024-01-15T05:51:24;90693.14;;;2.16;51.25703
80869;BME280;70295;40.182;44.498;2024-01-15T05:53:24;90688.66;;;2.3;51.20918
80869;BME280;70295;40.182;44.498;2024-01-15T05:55:24;90694.89;;;2.44;51.09785
80869;BME280;70295;40.182;44.498;2024-01-15T05:57:24;90703.25;;;2.59;50.93086
80869;BME280;70295;40.182;44.498;2024-01-15T05:59:24;90701.34;;;2.7;50.75996
80869;BME280;70295;40.182;44.498;2024-01-15T06:01:24;90706.1;;;2.82;50.78535
80869;BME280;70295;40.182;44.498;2024-01-15T06:03:24;90705.03;;;2.9;50.54609
80869;BME280;70295;40.182;44.498;2024-01-15T06:05:24;90703.97;;;3;50.3957
80869;BME280;70295;40.182;44.498;2024-01-15T06:07:24;90702.89;;;3.1;50.29805
80869;BME280;70295;40.182;44.498;2024-01-15T06:09:24;90703.59;;;3.21;50.1916
80869;BME280;70295;40.182;44.498;2024-01-15T06:11:29;90704.86;;;3.34;50.21894
80869;BME280;70295;40.182;44.498;2024-01-15T06:13:24;90711.94;;;3.49;50.00801
80869;BME280;70295;40.182;44.498;2024-01-15T06:15:24;90708.93;;;3.6;49.74922
80869;BME280;70295;40.182;44.498;2024-01-15T06:17:24;90710.33;;;3.72;49.49238
80869;BME280;70295;40.182;44.498;2024-01-15T06:19:24;90712.89;;;3.79;49.09687
80869;BME280;70295;40.182;44.498;2024-01-15T06:21:24;90712.53;;;3.79;48.82344
80869;BME280;70295;40.182;44.498;2024-01-15T06:23:24;90715.03;;;3.8;48.70625
80869;BME280;70295;40.182;44.498;2024-01-15T06:25:24;90714.16;;;3.81;48.69648
80869;BME280;70295;40.182;44.498;2024-01-15T06:27:24;90717.58;;;3.86;48.71406
80869;BME280;70295;40.182;44.498;2024-01-15T06:29:25;90722.69;;;4;48.72871
80869;BME280;70295;40.182;44.498;2024-01-15T06:31:24;90726.77;;;4.15;48.67109
80869;BME280;70295;40.182;44.498;2024-01-15T06:33:24;90724.14;;;4.29;48.41426
80869;BME280;70295;40.182;44.498;2024-01-15T06:35:24;90726.03;;;4.4;48.13301
80869;BME280;70295;40.182;44.498;2024-01-15T06:37:24;90725.47;;;4.5;48.10078
80869;BME280;70295;40.182;44.498;2024-01-15T06:39:24;90730.69;;;4.61;47.76484
80869;BME280;70295;40.182;44.498;2024-01-15T06:41:24;90731.86;;;4.72;47.67891
80869;BME280;70295;40.182;44.498;2024-01-15T06:43:24;90722.15;;;4.86;47.49824
80869;BME280;70295;40.182;44.498;2024-01-15T06:45:24;90717.5;;;4.99;47.32734
80869;BME280;70295;40.182;44.498;2024-01-15T06:47:24;90723.47;;;5.14;47.05976
80869;BME280;70295;40.182;44.498;2024-01-15T06:49:24;90723.55;;;5.24;46.65644
80869;BME280;70295;40.182;44.498;2024-01-15T06:51:24;90712.01;;;5.34;46.52559
80869;BME280;70295;40.182;44.498;2024-01-15T06:53:24;90715.25;;;5.42;46.30391
80869;BME280;70295;40.182;44.498;2024-01-15T06:55:24;90720.09;;;5.53;46.03144
80869;BME280;70295;40.182;44.498;2024-01-15T06:57:24;90723.34;;;5.64;45.93574
80869;BME280;70295;40.182;44.498;2024-01-15T06:59:24;90719.02;;;5.77;45.79609
80869;BME280;70295;40.182;44.498;2024-01-15T07:01:24;90718.75;;;5.89;45.46992
80869;BME280;70295;40.182;44.498;2024-01-15T07:03:24;90718.31;;;6.02;45.37519
80869;BME280;70295;40.182;44.498;2024-01-15T07:05:24;90718.55;;;6.13;45.05781
80869;BME280;70295;40.182;44.498;2024-01-15T07:07:24;90722.69;;;6.27;44.84297
80869;BME280;70295;40.182;44.498;2024-01-15T07:09:24;90716.9;;;6.39;44.48262
80869;BME280;70295;40.182;44.498;2024-01-15T07:11:24;90717.83;;;6.46;44.10664
80869;BME280;70295;40.182;44.498;2024-01-15T07:13:24;90712.91;;;6.54;43.99434
80869;BME280;70295;40.182;44.498;2024-01-15T07:15:24;90706.91;;;6.59;43.86836
80869;BME280;70295;40.182;44.498;2024-01-15T07:17:24;90713.11;;;6.62;43.5959
80869;BME280;70295;40.182;44.498;2024-01-15T07:19:24;90714.2;;;6.65;43.64473
80869;BME280;70295;40.182;44.498;2024-01-15T07:21:24;90715.3;;;6.75;43.52266
80869;BME280;70295;40.182;44.498;2024-01-15T07:23:24;90722.07;;;6.84;43.40059
80869;BME280;70295;40.182;44.498;2024-01-15T07:25:24;90721.19;;;6.94;43.25703
80869;BME280;70295;40.182;44.498;2024-01-15T07:27:24;90719.81;;;7.03;43.09004
80869;BME280;70295;40.182;44.498;2024-01-15T07:29:24;90724.61;;;7.09;42.88789
80869;BME280;70295;40.182;44.498;2024-01-15T07:31:24;90731.16;;;7.11;42.75801
80869;BME280;70295;40.182;44.498;2024-01-15T07:33:24;90730.63;;;7.07;42.77559
80869;BME280;70295;40.182;44.498;2024-01-15T07:35:24;90725.45;;;6.97;42.4582
80869;BME280;70295;40.182;44.498;2024-01-15T07:37:24;90724.11;;;6.68;42.0334
80869;BME280;70295;40.182;44.498;2024-01-15T07:39:24;90723.59;;;6.32;42.15059
80869;BME280;70295;40.182;44.498;2024-01-15T07:41:24;90724.34;;;6.08;42.46699
80869;BME280;70295;40.182;44.498;2024-01-15T07:43:24;90726.34;;;5.88;42.62226
80869;BME280;70295;40.182;44.498;2024-01-15T07:45:24;90727.3;;;5.73;42.91328
80869;BME280;70295;40.182;44.498;2024-01-15T07:47:24;90727.57;;;5.61;43.05391
80869;BME280;70295;40.182;44.498;2024-01-15T07:49:25;90727.81;;;5.46;43.14863
80869;BME280;70295;40.182;44.498;2024-01-15T07:51:24;90718.7;;;5.33;43.32051
80869;BME280;70295;40.182;44.498;2024-01-15T07:53:24;90716.66;;;5.22;43.5832
80869;BME280;70295;40.182;44.498;2024-01-15T07:55:24;90714.81;;;5.13;43.8791
80869;BME280;70295;40.182;44.498;2024-01-15T07:57:24;90708.94;;;5.06;44.11348
80869;BME280;70295;40.182;44.498;2024-01-15T07:59:24;90706.63;;;5.05;44.36348
80869;BME280;70295;40.182;44.498;2024-01-15T08:01:24;90705.35;;;5.01;44.30391
80869;BME280;70295;40.182;44.498;2024-01-15T08:03:24;90705.48;;;4.96;44.37519
80869;BME280;70295;40.182;44.498;2024-01-15T08:05:24;90698.53;;;4.88;44.23555
80869;BME280;70295;40.182;44.498;2024-01-15T08:07:25;90697.28;;;4.7;44.37031
80869;BME280;70295;40.182;44.498;2024-01-15T08:14:38;90693.19;;;4.49;45.15547
80869;BME280;70295;40.182;44.498;2024-01-15T08:16:38;90690.86;;;4.46;45.18476
80869;BME280;70295;40.182;44.498;2024-01-15T08:18:38;90690.84;;;4.44;45.22676
80869;BME280;70295;40.182;44.498;2024-01-15T08:20:38;90693.44;;;4.41;45.28828
80869;BME280;70295;40.182;44.498;2024-01-15T08:22:38;90686.86;;;4.36;45.46797
80869;BME280;70295;40.182;44.498;2024-01-15T08:24:38;90686.14;;;4.34;45.67305
80869;BME280;70295;40.182;44.498;2024-01-15T08:26:38;90685.27;;;4.34;45.73848
80869;BME280;70295;40.182;44.498;2024-01-15T08:28:38;90691.25;;;4.33;45.81465
80869;BME280;70295;40.182;44.498;2024-01-15T08:30:38;90688.42;;;4.33;45.78047
80869;BME280;70295;40.182;44.498;2024-01-15T08:32:38;90688.22;;;4.29;45.7668
80869;BME280;70295;40.182;44.498;2024-01-15T08:34:38;90686.92;;;4.28;46.11445
80869;BME280;70295;40.182;44.498;2024-01-15T08:36:38;90679.41;;;4.3;46.2043
80869;BME280;70295;40.182;44.498;2024-01-15T08:38:38;90681.45;;;4.27;46.1125
80869;BME280;70295;40.182;44.498;2024-01-15T08:40:38;90683.55;;;4.26;46.2209
80869;BME280;70295;40.182;44.498;2024-01-15T08:42:38;90681.63;;;4.27;46.29805
80869;BME280;70295;40.182;44.498;2024-01-15T08:44:38;90675.13;;;4.28;46.29902
80869;BME280;70295;40.182;44.498;2024-01-15T08:46:38;90679.34;;;4.27;46.33125
80869;BME280;70295;40.182;44.498;2024-01-15T08:48:38;90678.8;;;4.27;46.34199
80869;BME280;70295;40.182;44.498;2024-01-15T08:50:38;90677.05;;;4.26;46.31855
80869;BME280;70295;40.182;44.498;2024-01-15T08:52:38;90675.81;;;4.26;46.38398
80869;BME280;70295;40.182;44.498;2024-01-15T08:54:38;90676.5;;;4.26;46.40644
80869;BME280;70295;40.182;44.498;2024-01-15T08:56:38;90671.75;;;4.25;46.38301
80869;BME280;70295;40.182;44.498;2024-01-15T08:58:38;90669.22;;;4.21;46.49922
80869;BME280;70295;40.182;44.498;2024-01-15T09:00:38;90668.13;;;4.19;46.52851
80869;BME280;70295;40.182;44.498;2024-01-15T09:02:38;90668.66;;;4.17;46.63594
80869;BME280;70295;40.182;44.498;2024-01-15T09:04:38;90665.64;;;4.16;46.64668
80869;BME280;70295;40.182;44.498;2024-01-15T09:06:38;90664.23;;;4.16;46.79805
80869;BME280;70295;40.182;44.498;2024-01-15T09:08:38;90656.86;;;4.17;46.87519
80869;BME280;70295;40.182;44.498;2024-01-15T09:10:38;90656.34;;;4.19;47.04121
80869;BME280;70295;40.182;44.498;2024-01-15T09:12:38;90657.09;;;4.22;47.06562
80869;BME280;70295;40.182;44.498;2024-01-15T09:14:38;90652.66;;;4.21;46.84785
80869;BME280;70295;40.182;44.498;2024-01-15T09:16:38;90648.59;;;4.18;46.91035
80869;BME280;70295;40.182;44.498;2024-01-15T09:18:38;90639.08;;;4.19;46.92109
80869;BME280;70295;40.182;44.498;2024-01-15T09:20:38;90638.33;;;4.14;47.00312
80869;BME280;70295;40.182;44.498;2024-01-15T09:22:38;90638.98;;;4.11;47.07637
80869;BME280;70295;40.182;44.498;2024-01-15T09:24:39;90637.23;;;4.12;47.19746
80869;BME280;70295;40.182;44.498;2024-01-15T09:26:38;90641.86;;;4.16;47.2668
80869;BME280;70295;40.182;44.498;2024-01-15T09:28:38;90639.95;;;4.18;47.06172
80869;BME280;70295;40.182;44.498;2024-01-15T09:30:38;90633.36;;;4.13;46.82734
80869;BME280;70295;40.182;44.498;2024-01-15T09:32:38;90632.3;;;4.11;46.79414
80869;BME280;70295;40.182;44.498;2024-01-15T09:34:38;90625.91;;;4.09;46.87715
80869;BME280;70295;40.182;44.498;2024-01-15T09:36:40;90625.41;;;4.09;47.07441
80869;BME280;70295;40.182;44.498;2024-01-15T09:38:39;90622.92;;;4.08;47.18086
80869;BME280;70295;40.182;44.498;2024-01-15T09:40:38;90625.94;;;4.08;47.29121
80869;BME280;70295;40.182;44.498;2024-01-15T09:42:38;90621.36;;;4.08;47.41035
80869;BME280;70295;40.182;44.498;2024-01-15T09:44:38;90617.3;;;4.1;47.42305
80869;BME280;70295;40.182;44.498;2024-01-15T09:46:38;90614.15;;;4.12;47.51289
80869;BME280;70295;40.182;44.498;2024-01-15T09:48:38;90612.44;;;4.15;47.51582
80869;BME280;70295;40.182;44.498;2024-01-15T09:50:38;90611.39;;;4.17;47.57246
80869;BME280;70295;40.182;44.498;2024-01-15T09:52:38;90605.95;;;4.18;47.54219
80869;BME280;70295;40.182;44.498;2024-01-15T09:54:38;90610.49;;;4.15;47.49434
80869;BME280;70295;40.182;44.498;2024-01-15T09:56:38;90603.44;;;4.15;47.53828
80869;BME280;70295;40.182;44.498;2024-01-15T09:58:38;90605.41;;;4.17;47.65937
80869;BME280;70295;40.182;44.498;2024-01-15T10:00:38;90608.57;;;4.17;47.68184
80869;BME280;70295;40.182;44.498;2024-01-15T10:02:38;90603.48;;;4.18;47.68379
80869;BME280;70295;40.182;44.498;2024-01-15T10:04:38;90607.17;;;4.16;47.68184
80869;BME280;70295;40.182;44.498;2024-01-15T10:06:38;90603.13;;;4.17;47.73652
80869;BME280;70295;40.182;44.498;2024-01-15T10:08:38;90608.79;;;4.2;47.78437
80869;BME280;70295;40.182;44.498;2024-01-15T10:10:38;90606.14;;;4.2;47.76094
80869;BME280;70295;40.182;44.498;2024-01-15T10:12:38;90602.8;;;4.19;47.75019
80869;BME280;70295;40.182;44.498;2024-01-15T10:14:38;90600.67;;;4.2;47.79414
80869;BME280;70295;40.182;44.498;2024-01-15T10:16:40;90601.02;;;4.19;47.85762
80869;BME280;70295;40.182;44.498;2024-01-15T10:18:38;90605.98;;;4.22;47.90449
80869;BME280;70295;40.182;44.498;2024-01-15T10:20:38;90607.06;;;4.24;47.88594
80869;BME280;70295;40.182;44.498;2024-01-15T10:22:41;90611.31;;;4.26;47.77949
80869;BME280;70295;40.182;44.498;2024-01-15T10:24:38;90607.06;;;4.24;47.72285
80869;BME280;70295;40.182;44.498;2024-01-15T10:26:38;90608.32;;;4.25;47.64766
80869;BME280;70295;40.182;44.498;2024-01-15T10:28:38;90608.64;;;4.24;47.55879
80869;BME280;70295;40.182;44.498;2024-01-15T10:30:38;90607.58;;;4.22;47.60078
80869;BME280;70295;40.182;44.498;2024-01-15T10:32:38;90608.64;;;4.22;47.54512
80869;BME280;70295;40.182;44.498;2024-01-15T10:34:38;90612.14;;;4.22;47.52363
80869;BME280;70295;40.182;44.498;2024-01-15T10:36:40;90607.92;;;4.22;47.49043
80869;BME280;70295;40.182;44.498;2024-01-15T10:38:38;90612.32;;;4.22;47.57832
80869;BME280;70295;40.182;44.498;2024-01-15T10:40:38;90609.69;;;4.23;47.59101
80869;BME280;70295;40.182;44.498;2024-01-15T10:42:38;90611.31;;;4.26;47.49629